Stonewall, Colorado
Current Conditions -  °F | °C
As of 3:50 PM on Wednesday 22 Oct 2014 (Local Time) from KVTP Reporting Station
Scattered Clouds Scattered Clouds  
Wind Chill: 52°   Ceiling: Unl
Heat Index: 52°   Visibility: 10mi
Dew Point: 27°   Wind: 5mph
Humidity: 38%   Direction: 200°SSW
Pressure: 30.32"   Gusts: NA
Location:  37.1566°N, 104.956°W
Report Text: KVTP 222150Z AUTO 20004KT 10SM SCT090 11/M03 A3032 RMK AO2 LTG DSNT S
Loading
Personal Weather Stations






























Interactive Weather Map
Tropical Storm Tracking
New forecast layout! Learn more

10-Day Weather Forecast

Advertisements
Track Severe Weather on mobile